createdAt,value
2022-12-15T00:00:45.382Z,107.57
2022-12-15T00:03:33.399Z,106.20
2022-12-15T00:06:20.620Z,114.10
2022-12-15T00:09:12.681Z,111.43
2022-12-15T00:12:00.718Z,104.80
2022-12-15T00:14:47.240Z,76.47
2022-12-15T00:17:33.561Z,109.40
2022-12-15T00:20:21.815Z,108.65
2022-12-15T00:23:08.424Z,108.20
2022-12-15T00:25:55.218Z,117.50
2022-12-15T00:28:42.883Z,118.60
2022-12-15T00:31:29.472Z,131.10
2022-12-15T00:34:15.844Z,118.10
2022-12-15T00:37:03.528Z,126.28
2022-12-15T00:39:32.692Z,117.30
2022-12-15T00:42:01.835Z,114.28
2022-12-15T00:44:31.010Z,119.03
2022-12-15T00:46:59.131Z,112.20
2022-12-15T00:49:47.211Z,110.38
2022-12-15T00:52:36.718Z,116.28
2022-12-15T00:55:24.250Z,124.68
2022-12-15T01:00:58.889Z,90.57
2022-12-15T01:03:45.369Z,125.68
2022-12-15T01:06:34.093Z,116.30
2022-12-15T01:09:24.800Z,118.70
2022-12-15T01:12:11.362Z,114.63
2022-12-15T01:14:57.916Z,120.40
2022-12-15T01:17:44.213Z,113.80
2022-12-15T01:20:18.655Z,113.68
2022-12-15T01:22:49.411Z,111.82
2022-12-15T01:25:22.050Z,111.68
2022-12-15T01:27:51.504Z,119.63
2022-12-15T01:30:23.183Z,111.80
2022-12-15T01:32:52.664Z,117.70
2022-12-15T01:35:22.463Z,118.05
2022-12-15T01:37:51.573Z,106.03
2022-12-15T01:40:40.365Z,104.63
2022-12-15T01:43:15.112Z,97.50
2022-12-15T01:46:06.381Z,101.10
2022-12-15T01:48:45.544Z,100.47
2022-12-15T01:51:29.752Z,94.32
2022-12-15T01:54:05.652Z,97.75
2022-12-15T01:56:44.032Z,102.55
2022-12-15T01:59:19.656Z,98.82
2022-12-15T02:01:49.763Z,112.13
2022-12-15T02:04:20.797Z,104.80
2022-12-15T02:06:49.994Z,105.28
2022-12-15T02:09:20.290Z,99.43
2022-12-15T02:12:05.331Z,107.82
2022-12-15T02:15:09.452Z,102.07
2022-12-15T02:17:48.068Z,99.97
2022-12-15T02:20:50.648Z,100.32
2022-12-15T02:23:56.461Z,94.72
2022-12-15T02:27:21.198Z,93.03
2022-12-15T02:30:27.556Z,89.53
2022-12-15T02:33:08.084Z,93.85
2022-12-15T02:35:48.677Z,92.35
2022-12-15T02:38:28.993Z,98.30
2022-12-15T02:41:02.932Z,99.60
2022-12-15T02:43:37.271Z,104.13
2022-12-15T02:46:23.126Z,98.30
2022-12-15T02:49:05.207Z,97.20
2022-12-15T02:51:55.039Z,96.90
2022-12-15T02:54:49.134Z,98.18
2022-12-15T02:57:26.165Z,95.50
2022-12-15T03:02:34.443Z,93.88
2022-12-15T03:05:06.026Z,92.03
2022-12-15T03:07:35.455Z,95.20
2022-12-15T03:10:08.186Z,98.95
2022-12-15T03:12:37.690Z,99.65
2022-12-15T03:15:08.535Z,95.15
2022-12-15T03:17:39.208Z,102.22
2022-12-15T03:20:10.217Z,95.53
2022-12-15T03:22:40.007Z,101.93
2022-12-15T03:25:09.991Z,105.65
2022-12-15T03:27:39.049Z,100.60
2022-12-15T03:30:10.089Z,101.55
2022-12-15T03:32:40.776Z,98.05
2022-12-15T03:35:10.722Z,92.35
2022-12-15T03:37:40.044Z,97.15
2022-12-15T03:40:11.602Z,91.53
2022-12-15T03:42:49.670Z,92.45
2022-12-15T03:45:20.183Z,97.47
2022-12-15T03:47:52.365Z,95.30
2022-12-15T03:50:24.252Z,91.80
2022-12-15T03:52:54.437Z,89.57
2022-12-15T03:55:24.453Z,103.85
2022-12-15T03:57:53.843Z,90.97
2022-12-15T04:00:24.529Z,95.35
2022-12-15T04:02:55.979Z,89.85
2022-12-15T04:05:28.384Z,101.32
2022-12-15T04:07:59.326Z,98.13
2022-12-15T04:10:34.235Z,96.75
2022-12-15T04:13:06.680Z,99.28
2022-12-15T04:15:37.582Z,96.25
2022-12-15T04:18:11.625Z,93.10
2022-12-15T04:20:41.393Z,101.60
2022-12-15T04:23:10.636Z,87.57
2022-12-15T04:25:57.263Z,88.70
2022-12-15T04:28:43.883Z,89.23
2022-12-15T04:31:33.365Z,88.23
2022-12-15T04:34:25.176Z,92.80
2022-12-15T04:37:12.676Z,94.60
2022-12-15T04:42:50.506Z,94.00
2022-12-15T04:45:40.196Z,93.65
2022-12-15T04:48:26.911Z,101.85
2022-12-15T04:51:15.141Z,106.23
2022-12-15T04:54:02.253Z,98.60
2022-12-15T04:56:49.879Z,99.40
2022-12-15T04:59:37.132Z,91.78
2022-12-15T05:02:23.886Z,92.03
2022-12-15T05:05:10.493Z,93.40
2022-12-15T05:07:58.133Z,110.00
2022-12-15T05:10:44.419Z,118.88
2022-12-15T05:13:31.358Z,114.95
2022-12-15T05:16:18.259Z,112.15
2022-12-15T05:19:10.754Z,107.00
2022-12-15T05:21:57.921Z,113.15
2022-12-15T05:24:47.132Z,108.03
2022-12-15T05:27:33.694Z,99.18
2022-12-15T05:30:19.873Z,76.25
2022-12-15T05:32:49.984Z,100.72
2022-12-15T05:35:19.199Z,101.35
2022-12-15T05:37:48.420Z,97.38
2022-12-15T05:40:18.915Z,103.57
2022-12-15T05:42:50.260Z,100.78
2022-12-15T05:45:20.286Z,95.00
2022-12-15T05:47:53.687Z,101.57
2022-12-15T05:50:24.222Z,99.25
2022-12-15T05:52:54.495Z,102.10
2022-12-15T05:55:25.410Z,105.43
2022-12-15T05:57:58.118Z,115.55
2022-12-15T06:00:31.969Z,111.10
2022-12-15T06:03:03.061Z,120.07
2022-12-15T06:05:32.624Z,142.98
2022-12-15T06:08:02.362Z,136.98
2022-12-15T06:10:32.891Z,127.28
2022-12-15T06:13:02.170Z,133.50
2022-12-15T06:15:31.715Z,136.90
2022-12-15T06:18:01.017Z,132.60
2022-12-15T06:20:32.593Z,124.05
2022-12-15T06:23:01.935Z,122.97
2022-12-15T06:25:32.578Z,119.10
2022-12-15T06:28:02.163Z,127.40
2022-12-15T06:30:32.840Z,137.43
2022-12-15T06:33:02.936Z,129.75
2022-12-15T06:35:32.147Z,137.32
2022-12-15T06:38:01.959Z,142.82
2022-12-15T06:40:37.698Z,151.88
2022-12-15T06:43:07.822Z,135.37
2022-12-15T06:45:37.064Z,135.98
2022-12-15T06:48:08.400Z,138.02
2022-12-15T06:50:37.416Z,137.57
2022-12-15T06:53:06.519Z,150.40
2022-12-15T06:55:37.028Z,149.90
2022-12-15T06:58:06.132Z,150.13
2022-12-15T07:00:37.943Z,152.00
2022-12-15T07:03:12.150Z,144.57
2022-12-15T07:05:41.437Z,155.40
2022-12-15T07:08:12.075Z,154.85
2022-12-15T07:10:44.163Z,169.10
2022-12-15T07:13:14.129Z,159.38
2022-12-15T07:15:44.596Z,161.45
2022-12-15T07:18:13.793Z,214.10
2022-12-15T07:20:43.063Z,195.63
2022-12-15T07:23:12.348Z,168.38
2022-12-15T07:25:42.774Z,163.40
2022-12-15T07:28:12.158Z,155.95
2022-12-15T07:30:41.281Z,149.05
2022-12-15T07:33:10.437Z,156.65
2022-12-15T07:35:39.557Z,159.95
2022-12-15T07:38:09.725Z,155.63
2022-12-15T07:40:39.159Z,153.77
2022-12-15T07:43:09.644Z,141.55
2022-12-15T07:45:39.855Z,145.75
2022-12-15T07:48:08.788Z,138.10
2022-12-15T07:50:39.696Z,136.13
2022-12-15T07:53:08.687Z,140.27
2022-12-15T07:56:05.511Z,129.38
2022-12-15T07:58:29.416Z,133.45
2022-12-15T08:01:01.920Z,135.10
2022-12-15T08:03:31.976Z,139.52
2022-12-15T08:06:05.511Z,144.98
2022-12-15T08:08:36.517Z,156.52
2022-12-15T08:11:06.853Z,148.23
2022-12-15T08:16:29.168Z,145.95
2022-12-15T08:18:59.338Z,157.70
2022-12-15T08:21:28.439Z,154.63
2022-12-15T08:23:57.563Z,154.13
2022-12-15T08:26:30.305Z,148.68
2022-12-15T08:29:49.099Z,140.57
2022-12-15T08:31:54.917Z,138.18
2022-12-15T08:34:24.172Z,141.10
2022-12-15T08:36:53.181Z,133.50
2022-12-15T08:39:22.151Z,138.45
2022-12-15T08:41:51.549Z,136.20
2022-12-15T08:44:23.220Z,138.32
2022-12-15T08:46:52.508Z,139.43
2022-12-15T08:49:22.502Z,126.50
2022-12-15T08:51:52.516Z,132.70
2022-12-15T08:54:22.523Z,137.70
2022-12-15T08:56:51.700Z,127.57
2022-12-15T08:59:22.133Z,128.02
2022-12-15T09:01:51.441Z,130.30
2022-12-15T09:04:20.734Z,124.90
2022-12-15T09:06:50.430Z,118.68
2022-12-15T09:09:20.652Z,125.30
2022-12-15T09:11:51.285Z,131.13
2022-12-15T09:14:28.878Z,133.77
2022-12-15T09:16:58.759Z,130.13
2022-12-15T09:19:28.012Z,129.35
2022-12-15T09:21:56.999Z,127.68
2022-12-15T09:24:34.419Z,129.38
2022-12-15T09:27:05.222Z,121.68
2022-12-15T09:29:35.840Z,129.40
2022-12-15T09:32:10.501Z,132.45
2022-12-15T09:34:41.864Z,119.78
2022-12-15T09:37:10.918Z,123.00
2022-12-15T09:39:40.255Z,111.90
2022-12-15T09:42:26.116Z,116.75
2022-12-15T09:45:08.477Z,117.88
2022-12-15T09:47:46.085Z,111.78
2022-12-15T09:50:17.951Z,115.80
2022-12-15T09:52:51.493Z,111.22
2022-12-15T09:55:24.530Z,106.82
2022-12-15T09:57:57.171Z,108.60
2022-12-15T10:00:42.621Z,123.47
2022-12-15T10:03:42.830Z,114.18
2022-12-15T10:06:19.224Z,109.25
2022-12-15T10:08:57.669Z,106.20
2022-12-15T10:11:50.333Z,107.43
2022-12-15T10:14:31.676Z,103.95
2022-12-15T10:17:18.628Z,102.68
2022-12-15T10:20:01.284Z,107.57
2022-12-15T10:22:34.220Z,104.65
2022-12-15T10:25:15.603Z,104.70
2022-12-15T10:28:10.986Z,100.43
2022-12-15T10:30:52.150Z,105.50
2022-12-15T10:33:26.926Z,109.70
2022-12-15T10:35:59.089Z,108.95
2022-12-15T10:38:38.702Z,101.38
2022-12-15T10:41:10.460Z,110.82
2022-12-15T10:43:42.031Z,103.40
2022-12-15T10:46:15.533Z,103.40
2022-12-15T10:48:49.216Z,105.68
2022-12-15T10:51:27.485Z,107.13
2022-12-15T10:54:14.640Z,101.18
2022-12-15T10:56:53.717Z,103.75
2022-12-15T10:59:31.061Z,104.55
2022-12-15T11:02:34.674Z,96.00
2022-12-15T11:05:19.000Z,96.07
2022-12-15T11:07:51.883Z,97.35
2022-12-15T11:10:24.921Z,89.40
2022-12-15T11:13:16.384Z,88.95
2022-12-15T11:15:50.537Z,85.25
2022-12-15T11:18:43.860Z,87.97
2022-12-15T11:21:25.910Z,86.18
2022-12-15T11:24:09.934Z,89.20
2022-12-15T11:26:53.425Z,88.38
2022-12-15T11:29:34.594Z,87.35
2022-12-15T11:32:07.251Z,88.10
2022-12-15T11:34:44.539Z,87.22
2022-12-15T11:40:40.021Z,91.57
2022-12-15T11:43:52.202Z,84.13
2022-12-15T11:46:24.021Z,86.53
2022-12-15T11:49:29.250Z,94.88
2022-12-15T11:52:06.028Z,91.40
2022-12-15T11:54:45.180Z,89.90
2022-12-15T11:57:42.412Z,89.80
2022-12-15T12:00:15.774Z,91.35
2022-12-15T12:03:21.918Z,82.20
2022-12-15T12:06:06.628Z,89.65
2022-12-15T12:09:10.781Z,93.28
2022-12-15T12:11:48.841Z,91.28
2022-12-15T12:14:37.460Z,89.82
2022-12-15T12:17:15.189Z,84.28
2022-12-15T12:19:50.863Z,89.60
2022-12-15T12:22:27.529Z,85.32
2022-12-15T12:25:02.295Z,97.57
2022-12-15T12:27:40.884Z,92.05
2022-12-15T12:30:17.300Z,85.50
2022-12-15T12:32:54.946Z,87.00
2022-12-15T12:38:26.320Z,83.50
2022-12-15T12:41:06.278Z,80.70
2022-12-15T12:43:43.183Z,78.90
2022-12-15T12:46:22.676Z,80.93
2022-12-15T12:48:59.040Z,76.78
2022-12-15T12:51:32.019Z,82.03
2022-12-15T12:54:30.973Z,83.28
2022-12-15T12:57:00.942Z,78.85
2022-12-15T12:59:41.858Z,82.85
2022-12-15T13:03:12.303Z,75.45
2022-12-15T13:05:44.288Z,80.70
2022-12-15T13:08:51.922Z,76.22
2022-12-15T13:12:00.867Z,79.05
2022-12-15T13:17:32.300Z,86.30
2022-12-15T13:20:29.141Z,84.88
2022-12-15T13:23:44.642Z,88.97
2022-12-15T13:26:19.385Z,84.07
2022-12-15T13:28:54.406Z,84.25
2022-12-15T13:31:49.234Z,83.22
2022-12-15T13:34:33.982Z,90.55
2022-12-15T13:37:04.167Z,82.72
2022-12-15T13:39:59.646Z,87.00
2022-12-15T13:42:37.256Z,89.30
2022-12-15T13:46:06.746Z,92.68
2022-12-15T13:48:41.717Z,86.70
2022-12-15T13:51:33.621Z,81.82
2022-12-15T13:54:16.516Z,84.18
2022-12-15T13:57:06.920Z,83.07
2022-12-15T13:59:45.823Z,87.35
2022-12-15T14:02:57.750Z,89.18
2022-12-15T14:05:32.053Z,86.65
2022-12-15T14:08:13.250Z,86.82
2022-12-15T14:10:51.775Z,90.32
2022-12-15T14:13:27.688Z,96.72
2022-12-15T14:16:04.247Z,87.63
2022-12-15T14:18:35.961Z,86.63
2022-12-15T14:21:09.260Z,91.68
2022-12-15T14:24:10.998Z,90.70
2022-12-15T14:26:34.838Z,94.72
2022-12-15T14:29:07.638Z,104.00
2022-12-15T14:31:38.719Z,102.78
2022-12-15T15:03:12.826Z,82.57
2022-12-15T15:24:03.554Z,123.88
2022-12-15T15:26:33.083Z,170.57
2022-12-15T15:29:02.986Z,151.13
2022-12-15T15:31:41.319Z,121.10
2022-12-15T15:34:11.609Z,116.95
2022-12-15T15:36:41.036Z,120.45
2022-12-15T15:39:17.060Z,108.80
2022-12-15T15:41:46.275Z,116.97
2022-12-15T15:44:16.827Z,113.28
2022-12-15T15:46:49.872Z,111.30
2022-12-15T15:49:23.563Z,110.25
2022-12-15T15:51:53.340Z,114.40
2022-12-15T15:54:45.751Z,138.25
2022-12-15T15:57:16.394Z,141.98
2022-12-15T15:59:47.130Z,115.22
2022-12-15T16:02:16.900Z,130.88
2022-12-15T16:04:46.123Z,135.85
2022-12-15T16:07:24.172Z,152.50
2022-12-15T16:09:55.819Z,121.00
2022-12-15T16:12:29.372Z,121.63
2022-12-15T16:14:58.524Z,120.32
2022-12-15T16:17:27.611Z,138.05
2022-12-15T16:19:57.738Z,133.68
2022-12-15T16:22:26.848Z,116.50
2022-12-15T16:24:58.481Z,130.82
2022-12-15T16:27:28.491Z,133.80
2022-12-15T16:29:58.119Z,122.55
2022-12-15T16:32:27.265Z,123.45
2022-12-15T16:34:56.224Z,115.18
2022-12-15T16:37:28.369Z,124.53
2022-12-15T16:39:58.713Z,115.95
2022-12-15T16:42:27.755Z,120.18
2022-12-15T16:44:57.326Z,113.57
2022-12-15T16:47:27.240Z,114.80
2022-12-15T16:49:56.301Z,113.47
2022-12-15T16:52:25.309Z,109.70
2022-12-15T16:54:58.570Z,104.72
2022-12-15T16:57:27.699Z,100.78
2022-12-15T16:59:57.223Z,107.72
2022-12-15T17:02:29.837Z,115.10
2022-12-15T17:04:59.149Z,102.00
2022-12-15T17:07:29.567Z,109.18
2022-12-15T17:10:00.784Z,107.50
2022-12-15T17:12:30.213Z,107.88
2022-12-15T17:14:59.580Z,110.45
2022-12-15T17:17:30.653Z,113.50
2022-12-15T17:22:53.556Z,116.40
2022-12-15T17:26:00.857Z,105.72
2022-12-15T17:28:22.355Z,106.28
2022-12-15T17:30:52.532Z,117.60
2022-12-15T17:33:23.666Z,104.20
2022-12-15T17:35:56.044Z,117.40
2022-12-15T17:38:25.291Z,116.88
2022-12-15T17:40:58.056Z,115.32
2022-12-15T17:43:35.403Z,114.70
2022-12-15T17:46:05.378Z,122.90
2022-12-15T17:48:36.203Z,119.43
2022-12-15T17:51:15.460Z,113.43
2022-12-15T17:53:46.261Z,124.43
2022-12-15T17:56:18.916Z,119.75
2022-12-15T17:58:48.172Z,121.15
2022-12-15T18:01:17.438Z,113.78
2022-12-15T18:03:46.809Z,115.93
2022-12-15T18:06:17.353Z,113.45
2022-12-15T18:08:49.110Z,140.30
2022-12-15T18:11:20.128Z,114.15
2022-12-15T18:13:49.113Z,115.78
2022-12-15T18:16:18.961Z,111.35
2022-12-15T18:18:48.108Z,114.78
2022-12-15T18:21:19.270Z,122.40
2022-12-15T18:23:49.442Z,118.78
2022-12-15T18:26:21.090Z,113.20
2022-12-15T18:28:50.176Z,126.18
2022-12-15T18:31:25.791Z,123.78
2022-12-15T18:34:00.918Z,125.40
2022-12-15T18:36:33.440Z,121.00
2022-12-15T18:39:12.559Z,130.55
2022-12-15T18:41:42.914Z,115.63
2022-12-15T18:44:20.552Z,122.55
2022-12-15T18:46:49.815Z,116.40
2022-12-15T18:49:19.587Z,123.75
2022-12-15T18:51:50.897Z,123.88
2022-12-15T18:54:23.902Z,136.10
2022-12-15T18:56:54.848Z,130.02
2022-12-15T18:59:24.016Z,131.07
2022-12-15T19:01:53.345Z,130.77
2022-12-15T19:04:22.611Z,140.27
2022-12-15T19:06:51.954Z,126.55
2022-12-15T19:09:23.250Z,132.63
2022-12-15T19:12:12.603Z,123.32
2022-12-15T19:14:41.757Z,121.95
2022-12-15T19:17:30.574Z,125.78
2022-12-15T19:20:17.055Z,123.85
2022-12-15T19:22:48.326Z,125.28
2022-12-15T19:25:25.980Z,124.68
2022-12-15T19:27:59.335Z,123.30
2022-12-15T19:30:33.222Z,128.13
2022-12-15T19:33:05.137Z,125.23
2022-12-15T19:35:34.535Z,122.45
2022-12-15T19:38:04.603Z,126.72
2022-12-15T19:40:36.803Z,128.48
2022-12-15T19:43:07.419Z,122.90
2022-12-15T19:45:36.540Z,122.57
2022-12-15T19:48:06.500Z,124.90
2022-12-15T19:50:38.583Z,122.47
2022-12-15T19:53:17.543Z,125.50
2022-12-15T19:55:46.614Z,117.15
2022-12-15T19:58:31.987Z,120.68
2022-12-15T20:01:03.910Z,112.97
2022-12-15T20:03:34.534Z,118.22
2022-12-15T20:06:05.667Z,132.73
2022-12-15T20:08:39.239Z,121.63
2022-12-15T20:11:16.258Z,132.45
2022-12-15T20:13:47.258Z,119.55
2022-12-15T20:16:18.955Z,131.98
2022-12-15T20:18:49.281Z,124.88
2022-12-15T20:21:35.471Z,131.95
2022-12-15T20:24:09.875Z,125.47
2022-12-15T20:26:40.413Z,135.90
2022-12-15T20:29:24.256Z,126.72
2022-12-15T20:31:54.413Z,124.05
2022-12-15T20:34:23.674Z,132.70
2022-12-15T20:36:53.656Z,135.05
2022-12-15T20:39:26.738Z,129.10
2022-12-15T20:41:56.672Z,132.93
2022-12-15T20:44:27.783Z,140.70
2022-12-15T20:46:57.061Z,125.68
2022-12-15T20:49:26.381Z,137.73
2022-12-15T20:51:56.548Z,130.75
2022-12-15T20:54:25.611Z,132.23
2022-12-15T20:56:54.763Z,125.95
2022-12-15T20:59:23.791Z,135.55
2022-12-15T21:01:54.954Z,129.25
2022-12-15T21:04:32.112Z,136.68
2022-12-15T21:07:01.231Z,141.88
2022-12-15T21:09:30.318Z,135.65
2022-12-15T21:12:04.350Z,137.00
2022-12-15T21:14:36.553Z,140.20
2022-12-15T21:17:07.224Z,150.23
2022-12-15T21:19:36.336Z,145.40
2022-12-15T21:22:06.488Z,151.13
2022-12-15T21:24:35.885Z,152.75
2022-12-15T21:27:05.291Z,142.15
2022-12-15T21:29:35.152Z,147.32
2022-12-15T21:32:04.276Z,146.48
2022-12-15T21:34:35.144Z,162.82
2022-12-15T21:37:05.695Z,167.65
2022-12-15T21:39:37.453Z,160.32
2022-12-15T21:42:13.097Z,172.95
2022-12-15T21:44:42.733Z,159.25
2022-12-15T21:47:25.976Z,175.27
2022-12-15T21:49:55.420Z,159.70
2022-12-15T21:52:27.732Z,156.98
2022-12-15T21:54:56.697Z,157.50
2022-12-15T21:57:25.778Z,153.25
2022-12-15T21:59:55.184Z,157.32
2022-12-15T22:02:27.839Z,156.63
2022-12-15T22:05:04.824Z,152.07
2022-12-15T22:07:33.837Z,150.93
2022-12-15T22:10:03.490Z,144.50
2022-12-15T22:12:42.296Z,150.95
2022-12-15T22:15:18.433Z,146.20
2022-12-15T22:17:48.223Z,149.82
2022-12-15T22:20:23.285Z,151.82
2022-12-15T22:22:52.535Z,161.18
2022-12-15T22:25:24.601Z,161.52
2022-12-15T22:27:57.683Z,152.07
2022-12-15T22:30:28.249Z,149.00
2022-12-15T22:32:57.450Z,155.70
2022-12-15T22:35:28.591Z,146.30
2022-12-15T22:37:57.669Z,155.82
2022-12-15T22:40:26.665Z,162.13
2022-12-15T22:42:58.375Z,172.73
2022-12-15T22:45:27.565Z,163.00
2022-12-15T22:47:56.532Z,171.98
2022-12-15T22:50:28.414Z,156.40
2022-12-15T22:52:57.396Z,178.27
2022-12-15T22:55:26.478Z,164.95
2022-12-15T22:58:00.687Z,164.18
2022-12-15T23:00:29.765Z,162.05
2022-12-15T23:02:59.660Z,148.10
2022-12-15T23:05:32.795Z,152.60
2022-12-15T23:08:01.804Z,149.73
2022-12-15T23:10:48.319Z,154.43
2022-12-15T23:13:17.407Z,148.38
2022-12-15T23:16:03.988Z,153.45
2022-12-15T23:18:40.335Z,149.40
2022-12-15T23:21:10.868Z,156.53
2022-12-15T23:23:40.605Z,153.43
2022-12-15T23:26:09.951Z,162.90
2022-12-15T23:28:39.420Z,152.23
2022-12-15T23:31:14.137Z,144.38
2022-12-15T23:33:43.277Z,145.75
2022-12-15T23:36:14.546Z,147.07
2022-12-15T23:38:43.668Z,144.82
2022-12-15T23:41:17.947Z,152.30
2022-12-15T23:43:46.989Z,151.05
2022-12-15T23:46:16.152Z,139.15
2022-12-15T23:48:53.512Z,144.02
2022-12-15T23:51:25.615Z,157.27
2022-12-15T23:53:54.802Z,142.23
2022-12-15T23:56:50.555Z,144.77
2022-12-15T23:59:20.757Z,133.70
